• Join FlightAware (Why Join?)
  • Login
  • US Flag 
08:39PM EST


 

Airport Tracker/Info


-or-


 

Live Flight TrackerFlight Track Log ✈ DAL858 ✈ 01-May-2013 ✈ KMSP - KBOS

Flight Track Log - Related Links

Times and Time Zones

All times are in EDT time to prevent confusion due to time zone crossing. See the DAL858 flight status page for this flight to view local times or setup timezone preferences in your user account.

Time Position Orientation Groundspeed Altitude Reporting Facility
EDT Latitude Longitude Course Direction KTS MPH feet Rate Location/Type
04:51PM 44.9333 -93.2333 68° East 161 185 2,900  Level Minneapolis TRACON
04:51PM 44.9397 -93.2269 35° Northeast 163 188 3,100 2,040 Climbing Minneapolis Center
04:52PM 44.9997 -93.2053 14° North 231 266 5,600 2,520 Climbing Minneapolis Center
04:53PM 45.0040 -92.7508 70° East  Level FlightAware Approximate
04:53PM 45.0417 -93.1164 56° Northeast 267 307 8,400  Level Minneapolis Center
04:54PM 45.0491 -92.5947 66° East  Level FlightAware Approximate
04:54PM 45.0958 -92.9983 57° Northeast 305 351 10,600  Level Minneapolis Center
04:55PM 45.0945 -92.4388 70° East  Level FlightAware Approximate
04:55PM 45.1506 -92.8761 58° Northeast 369 425 11,600  Level Minneapolis Center
04:56PM 45.1291 -92.2790 68° East  Level FlightAware Approximate
04:56PM 45.2128 -92.7378 57° Northeast 414 476 14,000  Level Minneapolis Center
04:57PM 45.2597 -92.5919 65° Northeast 405 466 16,600 1,980 Climbing Minneapolis Center
04:58PM 45.2831 -92.4325 78° East 415 478 18,200 1,620 Climbing Minneapolis Center
04:59PM 45.3050 -92.2717 79° East 418 481 20,000 2,040 Climbing Minneapolis Center
05:00PM 45.3333 -92.0700 79° East 433 498 22,500 1,860 Climbing Minneapolis Center
05:01PM 45.3575 -91.9003 78° East 439 505 23,900 1,500 Climbing Minneapolis Center
05:02PM 45.3806 -91.7258 79° East 448 516 25,700 960 Climbing Minneapolis Center
05:04PM 45.4050 -91.5467 79° East 459 528 26,000 120 Climbing Minneapolis Center
05:05PM 45.4300 -91.3528 80° East 491 565 26,000 420 Level Minneapolis Center
05:06PM 45.4356 -91.1214 88° East 512 589 26,900 960 Climbing Minneapolis Center
05:07PM 45.4175 -90.9214 97° East 512 589 28,100 1,320 Climbing Minneapolis Center
05:08PM 45.3992 -90.7247 97° East 507 583 29,700 1,200 Climbing Minneapolis Center
05:09PM 45.3803 -90.5308 98° East 498 573 30,600 1,200 Climbing Minneapolis Center
05:10PM 45.3619 -90.3369 98° East 497 572 32,200 1,380 Climbing Minneapolis Center
05:11PM 45.3397 -90.1144 98° East 480 552 33,500 1,020 Climbing Minneapolis Center
05:12PM 45.3200 -89.9294 99° East 476 548 34,400 720 Climbing Minneapolis Center
05:13PM 45.3011 -89.7458 98° East 475 547 35,000 180 Climbing Minneapolis Center
05:15PM 45.2622 -89.3789 98° East 472 543 35,000  Level Minneapolis Center
05:16PM 45.2381 -89.1600 99° East 471 542 35,000  Level Minneapolis Center
05:17PM 45.2186 -88.9803 99° East 467 537 35,000  Level Minneapolis Center
05:18PM 45.1972 -88.7992 99° East 468 539 35,000  Level Minneapolis Center
05:19PM 45.1758 -88.6067 99° East 469 540 35,000  Level Minneapolis Center
05:20PM 45.1547 -88.4258 99° East 467 537 35,000 -60 Level Minneapolis Center
05:21PM 45.1336 -88.2461 99° East 465 535 34,900 -60 Descending Minneapolis Center
05:22PM 45.1133 -88.0664 99° East 465 535 34,900  Level Minneapolis Center
05:23PM 45.0856 -87.8508 100° East 466 536 35,000  Climbing Minneapolis Center
05:24PM 45.0647 -87.6697 99° East 467 537 34,900  Descending Minneapolis Center
05:25PM 45.0408 -87.4883 100° East 470 541 35,000  Climbing Minneapolis Center
05:26PM 45.0181 -87.3083 100° East 467 537 35,000  Level Minneapolis Center
05:27PM 44.9961 -87.1286 100° East 466 536 35,000  Level Minneapolis Center
05:28PM 44.9719 -86.9500 101° East 466 536 35,000  Level Minneapolis Center
05:29PM 44.9467 -86.7525 100° East 464 534 35,000  Level Minneapolis Center
05:30PM 44.9222 -86.5714 101° East 468 539 35,000  Level Minneapolis Center
05:31PM 44.8983 -86.3936 101° East 465 535 35,000  Level Minneapolis Center
05:32PM 44.8739 -86.2172 101° East 461 531 35,000  Level Minneapolis Center
05:33PM 44.8486 -86.0067 100° East 458 527 35,000  Level Minneapolis Center
05:35PM 44.8286 -85.8278 99° East 459 528 35,000  Level Minneapolis Center
05:36PM 44.8078 -85.6494 99° East 461 531 35,000  Level Minneapolis Center
05:37PM 44.7881 -85.4778 99° East 460 529 35,000  Level Minneapolis Center
05:38PM 44.7672 -85.3025 99° East 458 527 35,000 -60 Level Minneapolis Center
05:39PM 44.7433 -85.1025 99° East 437 503 34,900  Descending Minneapolis Center
05:40PM 44.7228 -84.9364 100° East 434 499 35,000  Climbing Minneapolis Center
05:41PM 44.7019 -84.7661 100° East 440 506 35,000 -60 Level Minneapolis Center
05:42PM 44.6797 -84.5958 100° East 444 511 34,900  Descending Minneapolis Center
05:43PM 44.6581 -84.4197 100° East 454 522 35,000  Climbing Minneapolis Center
05:44PM 44.6353 -84.2458 100° East 456 525 34,900 -60 Descending Minneapolis Center
05:45PM 44.6083 -84.0394 100° East 451 519 34,900  Level Minneapolis Center
05:46PM 44.5867 -83.8697 100° East 446 513 34,900  Level Minneapolis Center
05:47PM 44.5636 -83.6981 101° East 448 516 34,900  Level Minneapolis Center
05:48PM 44.5394 -83.5261 101° East 450 518 35,000  Climbing Minneapolis Center
05:49PM 44.5167 -83.3536 100° East 450 518 35,000  Level Minneapolis Center
05:50PM 44.4917 -83.1825 102° East 450 518 35,000  Level Minneapolis Center
05:51PM 44.4689 -83.0106 100° East 450 518 35,000  Level Minneapolis Center
05:52PM 44.4386 -82.8033 101° East 453 521 35,000  Level Minneapolis Center
05:53PM 44.4144 -82.6311 101° East 454 522 35,000 -60 Level Minneapolis Center
05:54PM 44.3886 -82.4578 102° East 455 524 34,900  Descending Minneapolis Center
05:55PM 44.3500 -82.2667 106° East 450 518 35,000  Climbing Toronto Center
05:56PM 44.3167 -82.0833 104° East 450 518 35,000  Level Toronto Center
05:57PM 44.3000 -81.9167 98° East 460 529 35,000  Level Toronto Center
05:58PM 44.2667 -81.7500 106° East 460 529 35,000  Level Toronto Center
05:59PM 44.2500 -81.5667 97° East 460 529 35,000  Level Toronto Center
06:00PM 44.2167 -81.4000 106° East 450 518 35,000  Level Toronto Center
06:01PM 44.1833 -81.2333 106° East 450 518 35,000  Level Toronto Center
06:02PM 44.1333 -81.0667 113° Southeast 450 518 35,000  Level Toronto Center
06:03PM 44.0833 -80.9167 115° Southeast 450 518 35,000  Level Toronto Center
06:04PM 44.0500 -80.7500 105° East 450 518 35,000  Level Toronto Center
06:05PM 44.0000 -80.6000 115° Southeast 450 518 35,000  Level Toronto Center
06:06PM 43.9333 -80.4500 122° Southeast 450 518 35,000  Level Toronto Center
06:07PM 43.8833 -80.2833 113° Southeast 450 518 35,000  Level Toronto Center
06:08PM 43.8333 -80.1333 115° Southeast 450 518 35,000  Level Toronto Center
06:09PM 43.7667 -79.9500 117° Southeast 450 518 35,000  Level Toronto Center
06:10PM 43.7167 -79.8167 117° Southeast 450 518 35,000  Level Toronto Center
06:11PM 43.6667 -79.6500 112° Southeast 460 529 35,000  Level Toronto Center
06:12PM 43.6333 -79.5000 107° East 450 518 35,000  Level Toronto Center
06:13PM 43.6167 -79.3167 97° East 450 518 35,000  Level Toronto Center
06:14PM 43.5833 -79.1500 105° East 450 518 35,000  Level Toronto Center
06:15PM 43.5667 -78.9667 97° East 450 518 35,000  Level Toronto Center
06:16PM 43.5500 -78.8000 98° East 450 518 35,000  Level Toronto Center
06:17PM 43.5167 -78.6500 107° East 450 518 35,000  Level Toronto Center
06:18PM 43.4833 -78.4667 104° East 450 518 35,000  Level Toronto Center
06:19PM 43.4667 -78.3000 98° East 450 518 35,000  Level Toronto Center
06:20PM 43.4581 -78.1494 94° East 447 514 35,000  Level Cleveland Center
06:21PM 43.4333 -77.9789 101° East 447 514 35,000  Level Cleveland Center
06:22PM 43.4086 -77.8114 101° East 447 514 35,000  Level Cleveland Center
06:23PM 43.3836 -77.6411 101° East 447 514 35,000  Level Cleveland Center
06:24PM 43.3586 -77.4767 102° East 447 514 35,000  Level Cleveland Center
06:25PM 43.3331 -77.3094 102° East 447 514 35,000  Level Cleveland Center
06:27PM 43.2667 -76.9500 104° East 440 506 35,000  Level Toronto Center
06:28PM 43.2500 -76.8000 99° East 440 506 35,000  Level Toronto Center
06:29PM 43.2167 -76.6167 104° East 440 506 35,000  Level Toronto Center
06:30PM 43.1833 -76.4500 105° East 440 506 35,000  Level Toronto Center
06:31PM 43.1667 -76.3000 99° East 440 506 35,000  Level Toronto Center
06:32PM 43.1736 -76.2783 66° East 434 499 35,000  Level Boston Center
06:33PM 43.1478 -76.1144 102° East 434 499 35,000  Level Boston Center
06:34PM 43.1217 -75.9506 102° East 434 499 35,000  Level Boston Center
06:35PM 43.0933 -75.7869 103° East 434 499 35,000 -60 Level Boston Center
06:36PM 43.0644 -75.6261 104° East 434 499 34,900  Descending Boston Center
06:37PM 43.0378 -75.4628 103° East 439 505 35,000  Climbing Boston Center
06:38PM 43.0106 -75.3025 103° East 439 505 35,000  Level Boston Center
06:39PM 42.9833 -75.1392 103° East 439 505 35,000 -60 Level Boston Center
06:40PM 42.9556 -74.9792 103° East 439 505 34,900  Descending Boston Center
06:41PM 42.9278 -74.8164 103° East 439 505 35,000  Climbing Boston Center
06:42PM 42.8997 -74.6594 104° East 439 505 35,000 -60 Level Boston Center
06:43PM 42.8717 -74.4997 103° East 433 498 34,900  Descending Boston Center
06:44PM 42.8431 -74.3431 104° East 433 498 35,000  Climbing Boston Center
06:45PM 42.8142 -74.1864 104° East 433 498 35,000 -60 Level Boston Center
06:46PM 42.7933 -74.0417 101° East 433 498 34,900 -60 Descending Boston Center
06:47PM 42.7708 -73.8514 99° East 428 493 34,900  Level Boston Center
06:48PM 42.7503 -73.6644 98° East 428 493 35,000  Climbing Boston Center
06:49PM 42.7308 -73.5086 100° East 423 487 35,000  Level Boston Center
06:50PM 42.7136 -73.3500 98° East 423 487 35,000  Level Boston Center
06:51PM 42.6919 -73.1633 99° East 423 487 35,000  Level Boston Center
06:52PM 42.6719 -73.0047 100° East 423 487 35,000 -180 Level Boston Center
06:53PM 42.6497 -72.8408 100° East 430 495 34,700 -780 Descending Boston Center
06:54PM 42.6294 -72.6800 100° East 430 495 33,500 -2,220 Descending Boston Center
06:55PM 42.6172 -72.5444 97° East 418 481 30,300 -3,960 Descending Boston Center
06:56PM 42.5858 -72.3611 103° East 432 497 25,600 -4,320 Descending Boston Center
06:57PM 42.5647 -72.1978 100° East 433 498 21,700 -3,540 Descending Boston Center
06:58PM 42.5456 -72.0511 100° East 433 498 18,600 -3,180 Descending Boston Center
06:59PM 42.5303 -71.8767 97° East 427 491 15,400 -3,120 Descending Boston Center
07:00PM 42.5150 -71.7417 99° East 422 486 12,400 -2,340 Descending Boston Center
07:01PM 42.5000 -71.5667 97° East 358 412 10,700 -1,260 Descending KA90
07:02PM 42.4833 -71.4500 101° East 314 361 9,900 -840 Descending KA90
07:03PM 42.4833 -71.3333 90° East 289 333 9,100 -780 Descending KA90
07:04PM 42.4667 -71.2333 103° East 288 331 8,400 -720 Descending KA90
07:05PM 42.4667 -71.1333 90° East 280 322 7,700 -720 Descending KA90
07:06PM 42.4500 -71.0333 103° East 247 284 7,000 -600 Descending KA90
07:07PM 42.4000 -70.9833 144° Southeast 238 274 6,500 -540 Descending KA90
07:08PM 42.3333 -70.9500 160° South 240 276 6,000 -240 Descending KA90
07:09PM 42.2667 -70.9500 180° South 247 284 6,000  Level KA90
07:10PM 42.2000 -70.9833 200° South 243 280 6,000 -300 Level KA90
07:11PM 42.1333 -71.0167 200° South 241 277 5,500 -720 Descending KA90
07:12PM 42.1000 -71.0833 236° Southwest 227 261 4,600 -840 Descending KA90
07:13PM 42.1500 -71.1000 346° North 193 222 3,900 -660 Descending KA90
07:14PM 42.2000 -71.0833 14° North 185 213 3,300 -600 Descending KA90